sensor_id;sensor_type;location;lat;lon;timestamp;pressure;altitude;pressure_sealevel;temperature;humidity
39699;BME280;25372;50.582;12.250;2023-07-16T00:10:01;99241.59;;;21.12;67.44
39699;BME280;25372;50.582;12.250;2023-07-16T00:20:23;99402.59;;;21.50;65.88
39699;BME280;25372;50.582;12.250;2023-07-16T00:30:44;99433.22;;;21.86;63.92
39699;BME280;25372;50.582;12.250;2023-07-16T00:41:06;99462.44;;;21.88;64.87
39699;BME280;25372;50.582;12.250;2023-07-16T00:51:27;99466.84;;;21.81;66.76
39699;BME280;25372;50.582;12.250;2023-07-16T01:01:51;99476.81;;;21.87;66.42
39699;BME280;25372;50.582;12.250;2023-07-16T01:12:12;99461.06;;;21.92;66.47
39699;BME280;25372;50.582;12.250;2023-07-16T01:22:51;99427.72;;;21.88;66.95
39699;BME280;25372;50.582;12.250;2023-07-16T01:33:15;99400.94;;;21.49;68.81
39699;BME280;25372;50.582;12.250;2023-07-16T01:43:37;99411.56;;;20.88;73.78
39699;BME280;25372;50.582;12.250;2023-07-16T01:53:59;99446.03;;;20.49;76.81
39699;BME280;25372;50.582;12.250;2023-07-16T02:04:20;99425.97;;;20.22;78.66
39699;BME280;25372;50.582;12.250;2023-07-16T02:14:42;99430.16;;;19.41;83.99
39699;BME280;25372;50.582;12.250;2023-07-16T02:25:03;99490.41;;;18.91;89.44
39699;BME280;25372;50.582;12.250;2023-07-16T02:35:26;99494.53;;;18.85;90.74
39699;BME280;25372;50.582;12.250;2023-07-16T02:45:49;99524.44;;;18.53;93.26
39699;BME280;25372;50.582;12.250;2023-07-16T02:56:11;99553.00;;;18.51;94.65
39699;BME280;25372;50.582;12.250;2023-07-16T03:06:31;99580.00;;;18.38;95.09
39699;BME280;25372;50.582;12.250;2023-07-16T03:16:54;99595.31;;;18.44;96.42
39699;BME280;25372;50.582;12.250;2023-07-16T03:27:15;99608.94;;;18.41;95.90
39699;BME280;25372;50.582;12.250;2023-07-16T03:37:38;99634.59;;;18.14;97.54
39699;BME280;25372;50.582;12.250;2023-07-16T03:48:01;99560.91;;;18.16;95.97
39699;BME280;25372;50.582;12.250;2023-07-16T03:58:23;99559.38;;;18.13;97.14
39699;BME280;25372;50.582;12.250;2023-07-16T04:08:44;99506.00;;;18.25;96.93
39699;BME280;25372;50.582;12.250;2023-07-16T04:19:06;99506.13;;;18.23;97.41
39699;BME280;25372;50.582;12.250;2023-07-16T04:29:27;99506.53;;;18.28;97.27
39699;BME280;25372;50.582;12.250;2023-07-16T04:39:50;99514.19;;;18.31;96.71
39699;BME280;25372;50.582;12.250;2023-07-16T04:50:10;99523.13;;;18.57;95.37
39699;BME280;25372;50.582;12.250;2023-07-16T05:00:33;99523.88;;;18.67;93.47
39699;BME280;25372;50.582;12.250;2023-07-16T05:10:53;99462.22;;;18.72;93.41
39699;BME280;25372;50.582;12.250;2023-07-16T05:21:16;99437.69;;;18.86;91.72
39699;BME280;25372;50.582;12.250;2023-07-16T05:31:36;99510.44;;;19.12;91.32
39699;BME280;25372;50.582;12.250;2023-07-16T05:41:58;99512.13;;;19.13;90.26
39699;BME280;25372;50.582;12.250;2023-07-16T05:52:21;99566.06;;;19.40;88.20
39699;BME280;25372;50.582;12.250;2023-07-16T06:02:44;99587.44;;;22.39;78.54
39699;BME280;25372;50.582;12.250;2023-07-16T06:13:05;99602.22;;;22.88;72.46
39699;BME280;25372;50.582;12.250;2023-07-16T06:23:27;99626.25;;;21.88;77.79
39699;BME280;25372;50.582;12.250;2023-07-16T06:33:48;99630.44;;;21.91;76.28
39699;BME280;25372;50.582;12.250;2023-07-16T06:44:11;99636.97;;;22.35;74.68
39699;BME280;25372;50.582;12.250;2023-07-16T06:54:32;99629.59;;;21.50;76.10
39699;BME280;25372;50.582;12.250;2023-07-16T07:04:55;99641.59;;;21.63;76.23
39699;BME280;25372;50.582;12.250;2023-07-16T07:15:15;99652.00;;;22.13;75.51
39699;BME280;25372;50.582;12.250;2023-07-16T07:25:38;99652.28;;;22.41;69.83
39699;BME280;25372;50.582;12.250;2023-07-16T07:35:58;99675.06;;;22.60;68.59
39699;BME280;25372;50.582;12.250;2023-07-16T07:46:21;99692.75;;;22.61;61.68
39699;BME280;25372;50.582;12.250;2023-07-16T07:56:45;99714.59;;;22.50;61.85
39699;BME280;25372;50.582;12.250;2023-07-16T08:07:06;99701.38;;;23.10;62.04
39699;BME280;25372;50.582;12.250;2023-07-16T08:17:27;99697.91;;;22.86;58.36
39699;BME280;25372;50.582;12.250;2023-07-16T08:27:49;99711.13;;;23.03;59.37
39699;BME280;25372;50.582;12.250;2023-07-16T08:38:10;99738.09;;;23.16;59.20
39699;BME280;25372;50.582;12.250;2023-07-16T08:48:33;99718.34;;;23.93;59.08
39699;BME280;25372;50.582;12.250;2023-07-16T08:58:54;99743.00;;;23.13;57.30
39699;BME280;25372;50.582;12.250;2023-07-16T09:09:30;99745.13;;;23.02;58.57
39699;BME280;25372;50.582;12.250;2023-07-16T09:19:52;99761.47;;;25.22;55.55
39699;BME280;25372;50.582;12.250;2023-07-16T09:30:16;99746.56;;;27.26;48.31
39699;BME280;25372;50.582;12.250;2023-07-16T09:40:37;99749.25;;;26.45;46.28
39699;BME280;25372;50.582;12.250;2023-07-16T09:50:59;99744.66;;;25.77;47.08
39699;BME280;25372;50.582;12.250;2023-07-16T10:01:21;99748.50;;;24.97;49.01
39699;BME280;25372;50.582;12.250;2023-07-16T10:11:44;99763.06;;;25.09;49.32
39699;BME280;25372;50.582;12.250;2023-07-16T10:22:06;99770.91;;;24.24;49.34
39699;BME280;25372;50.582;12.250;2023-07-16T10:32:30;99766.00;;;24.49;53.06
39699;BME280;25372;50.582;12.250;2023-07-16T10:42:52;99782.38;;;25.26;48.47
39699;BME280;25372;50.582;12.250;2023-07-16T10:53:14;99769.28;;;24.88;49.15
39699;BME280;25372;50.582;12.250;2023-07-16T11:03:35;99766.38;;;25.11;48.68
39699;BME280;25372;50.582;12.250;2023-07-16T11:13:58;99770.59;;;26.74;45.09
39699;BME280;25372;50.582;12.250;2023-07-16T11:24:18;99770.38;;;25.51;46.94
39699;BME280;25372;50.582;12.250;2023-07-16T11:34:55;99771.16;;;25.87;49.70
39699;BME280;25372;50.582;12.250;2023-07-16T11:45:17;99754.56;;;25.69;48.68
39699;BME280;25372;50.582;12.250;2023-07-16T11:55:40;99741.13;;;26.25;47.13
39699;BME280;25372;50.582;12.250;2023-07-16T12:06:01;99745.91;;;27.44;44.78
39699;BME280;25372;50.582;12.250;2023-07-16T12:16:23;99739.06;;;27.48;45.83
39699;BME280;25372;50.582;12.250;2023-07-16T12:26:44;99737.25;;;27.15;44.80
39699;BME280;25372;50.582;12.250;2023-07-16T12:37:06;99733.56;;;26.96;45.22
39699;BME280;25372;50.582;12.250;2023-07-16T12:47:27;99719.72;;;27.65;42.63
39699;BME280;25372;50.582;12.250;2023-07-16T12:57:49;99719.38;;;28.39;41.64
39699;BME280;25372;50.582;12.250;2023-07-16T13:08:10;99723.38;;;28.62;42.70
39699;BME280;25372;50.582;12.250;2023-07-16T13:18:33;99721.28;;;27.34;43.63
39699;BME280;25372;50.582;12.250;2023-07-16T13:28:53;99706.66;;;28.21;41.42
39699;BME280;25372;50.582;12.250;2023-07-16T13:39:16;99714.94;;;29.02;40.36
39699;BME280;25372;50.582;12.250;2023-07-16T13:49:36;99726.78;;;28.76;40.32
39699;BME280;25372;50.582;12.250;2023-07-16T13:59:58;99708.50;;;28.14;40.84
39699;BME280;25372;50.582;12.250;2023-07-16T14:10:20;99713.16;;;29.34;38.32
39699;BME280;25372;50.582;12.250;2023-07-16T14:20:43;99716.31;;;29.86;37.72
39699;BME280;25372;50.582;12.250;2023-07-16T14:31:04;99712.81;;;31.31;35.19
39699;BME280;25372;50.582;12.250;2023-07-16T14:41:26;99711.25;;;31.35;32.49
39699;BME280;25372;50.582;12.250;2023-07-16T14:51:47;99698.03;;;31.91;33.26
39699;BME280;25372;50.582;12.250;2023-07-16T15:02:09;99701.03;;;31.78;32.21
39699;BME280;25372;50.582;12.250;2023-07-16T15:12:30;99696.78;;;31.05;32.01
39699;BME280;25372;50.582;12.250;2023-07-16T15:22:52;99687.00;;;30.68;33.38
39699;BME280;25372;50.582;12.250;2023-07-16T15:33:13;99686.06;;;29.78;33.97
39699;BME280;25372;50.582;12.250;2023-07-16T15:43:36;99691.69;;;28.51;36.64
39699;BME280;25372;50.582;12.250;2023-07-16T15:53:56;99691.44;;;28.52;36.91
39699;BME280;25372;50.582;12.250;2023-07-16T16:04:19;99683.84;;;28.68;36.88
39699;BME280;25372;50.582;12.250;2023-07-16T16:14:39;99687.41;;;28.36;36.42
39699;BME280;25372;50.582;12.250;2023-07-16T16:25:02;99693.47;;;27.92;36.43
39699;BME280;25372;50.582;12.250;2023-07-16T16:35:24;99694.16;;;28.20;37.30
39699;BME280;25372;50.582;12.250;2023-07-16T16:45:46;99693.22;;;28.01;37.23
39699;BME280;25372;50.582;12.250;2023-07-16T16:56:09;99705.53;;;27.90;38.22
39699;BME280;25372;50.582;12.250;2023-07-16T17:06:31;99702.56;;;27.98;37.06
39699;BME280;25372;50.582;12.250;2023-07-16T17:16:52;99721.03;;;27.42;38.64
39699;BME280;25372;50.582;12.250;2023-07-16T17:27:14;99722.34;;;27.13;37.45
39699;BME280;25372;50.582;12.250;2023-07-16T17:37:36;99716.16;;;27.05;38.23
39699;BME280;25372;50.582;12.250;2023-07-16T17:47:59;99734.31;;;26.43;40.17
39699;BME280;25372;50.582;12.250;2023-07-16T17:58:20;99727.53;;;25.91;40.37
39699;BME280;25372;50.582;12.250;2023-07-16T18:08:42;99738.03;;;25.73;41.72
39699;BME280;25372;50.582;12.250;2023-07-16T18:19:03;99749.53;;;25.24;41.74
39699;BME280;25372;50.582;12.250;2023-07-16T18:29:26;99745.69;;;24.62;42.41
39699;BME280;25372;50.582;12.250;2023-07-16T18:39:47;99756.22;;;24.05;43.46
39699;BME280;25372;50.582;12.250;2023-07-16T18:50:09;99758.19;;;23.66;47.05
39699;BME280;25372;50.582;12.250;2023-07-16T19:00:30;99773.88;;;23.00;49.09
39699;BME280;25372;50.582;12.250;2023-07-16T19:10:53;99777.06;;;21.94;57.86
39699;BME280;25372;50.582;12.250;2023-07-16T19:21:14;99781.03;;;21.50;57.74
39699;BME280;25372;50.582;12.250;2023-07-16T19:31:36;99790.09;;;20.91;59.26
39699;BME280;25372;50.582;12.250;2023-07-16T19:41:57;99800.75;;;21.16;54.19
39699;BME280;25372;50.582;12.250;2023-07-16T19:52:19;99814.13;;;20.91;54.94
39699;BME280;25372;50.582;12.250;2023-07-16T20:02:40;99807.78;;;20.24;56.83
39699;BME280;25372;50.582;12.250;2023-07-16T20:13:02;99825.41;;;20.17;57.06
39699;BME280;25372;50.582;12.250;2023-07-16T20:23:23;99821.03;;;20.07;56.83
39699;BME280;25372;50.582;12.250;2023-07-16T20:33:46;99835.19;;;20.08;59.40
39699;BME280;25372;50.582;12.250;2023-07-16T20:44:07;99849.72;;;19.87;61.36
39699;BME280;25372;50.582;12.250;2023-07-16T20:54:29;99844.50;;;19.51;62.48
39699;BME280;25372;50.582;12.250;2023-07-16T21:04:50;99834.94;;;19.40;61.71
39699;BME280;25372;50.582;12.250;2023-07-16T21:15:12;99832.44;;;19.38;64.17
39699;BME280;25372;50.582;12.250;2023-07-16T21:25:33;99826.19;;;19.03;62.12
39699;BME280;25372;50.582;12.250;2023-07-16T21:35:56;99838.94;;;19.18;62.79
39699;BME280;25372;50.582;12.250;2023-07-16T21:46:16;99846.38;;;18.78;61.80
39699;BME280;25372;50.582;12.250;2023-07-16T21:56:38;99854.72;;;18.65;62.24
39699;BME280;25372;50.582;12.250;2023-07-16T22:06:59;99869.16;;;18.80;64.12
39699;BME280;25372;50.582;12.250;2023-07-16T22:17:22;99861.78;;;18.92;63.65
39699;BME280;25372;50.582;12.250;2023-07-16T22:27:43;99894.13;;;18.97;63.62
39699;BME280;25372;50.582;12.250;2023-07-16T22:38:06;99895.03;;;18.88;64.63
39699;BME280;25372;50.582;12.250;2023-07-16T22:48:27;99908.03;;;18.63;65.34
39699;BME280;25372;50.582;12.250;2023-07-16T22:58:49;99908.84;;;18.45;66.39
39699;BME280;25372;50.582;12.250;2023-07-16T23:09:10;99911.13;;;18.30;65.82
39699;BME280;25372;50.582;12.250;2023-07-16T23:19:32;99914.53;;;18.13;65.69
39699;BME280;25372;50.582;12.250;2023-07-16T23:29:53;99906.50;;;18.05;65.26
39699;BME280;25372;50.582;12.250;2023-07-16T23:40:15;99904.44;;;17.69;67.02
39699;BME280;25372;50.582;12.250;2023-07-16T23:50:38;99903.47;;;17.50;69.45
